6R6

Terrell County Airport

Dryden, Texas, USA
METAR K6R6 172053Z AUTO 19005KT 21/01 A2998 RMK AO1 SLP136 T02110011 56023 $
Observed Flight Rules
Nov-17 @ 20:53 UTC (3 hours ago)
Wind
190° at 5 knots
Temperatures Readings
Current 21°C / 70°F
Dewpoint 1°C / 34°F
Humidity 27%
Altimeter 29.98" Hg
Pressure 1013.6 hPa
Elevation 701
METAR K6R6 172053Z AUTO 19005KT 21/01 A2998 RMK AO1 SLP136 T02110011 56023 $
Observed Flight Rules
Nov-17 @ 20:53 UTC
(3 hours ago)
Wind
190° at 5 knots
Temperature Dewpoint
21°C / 70°F 1°C / 34°F
Humidity Altimeter Pressure
27% 29.98" Hg 1013.6 hPa